Open Full Screen Window  High Contrast Mode
Wind Gusting 00 knots
10
September 02, 2014 3:55 AM CDT
Weather Information
Wind Direction
  270 °
Wind Speed
  10 kt (12 mph)
Wind Gust
  00 kt (0 mph)
Altimeter
29.92 in
Visibility
10 SM
Temperature
14° C
57° F
Dewpoint
14° C
57° F
Humidity
100%
1hr Rain Fall
00.00 in.
24hr Rain Fall
00.04 in.
Sky Condition
Clear
VFR

METAR KMDS 020855Z AUTO 27010KT 10SM CLR 14/14 A2992 RMK AO2

*Background is not an actual portrayal of the airport.